Tiempo atmosférico en la estación meteorológica de Ribadeo, Lugo (43 m.)



Fecha
DESCASC
Temp. máxima en grados centígrados (hora)
DESCASC
Temp. mínima en grados centígrados (hora)
DESCASC
Temp. media en grados centígrados
DESCASC
Racha de viento máxima en m/sg (hora)
DESCASC
Velocidad máxima media en intervalos de 10 minutos(hora)
DESCASC
Precipitaciones diarias en mm
DESCASC
Precipitaciones de 00:00 a 06:00 en mm
DESCASC
Precipitaciones de 06:00 a 12:00 en mm
DESCASC
Precipitaciones de 12:00 a 18:00 en mm
DESCASC
Precipitaciones de 18:00 a 24:00 en mm
DESCASC
19-01-2020 11.2 (00:30) 9 (23:50) 10.1 19.44 (22:40) 11.94 (23:50) 1 1 0 0 0
18-01-2020 15.4 (12:30) 7.7 (00:00) 11.5 14.17 (13:10) 8.89 (14:10) 11.2 0 0.2 10.2 0.8
17-01-2020 13.3 (15:10) 7.2 (20:30) 10.3 18.33 (01:30) 9.44 (01:30) 1.8 0.8 0.8 0.2 0
16-01-2020 19.8 (13:10) 7.5 (00:00) 13.6 23.06 (09:10) 9.72 (12:20) 12.8 0 0 4.6 8.2
15-01-2020 16.2 (00:40) 7.6 (00:00) 11.9 29.17 (03:00) 10.83 (03:10) 10.6 2.2 8.4 0 0
14-01-2020 18.2 (14:40) 14.3 (00:00) 16.3 26.11 (04:00) 13.89 (01:30) 0 0 0 0 0
13-01-2020 14.9 (16:20) 10 (00:00) 12.4 23.89 (23:00) 12.78 (22:00) 0 0 0 0 0
12-01-2020 15.3 (12:30) 5.3 (00:00) 10.3 12.5 (03:30) 7.5 (07:20) 0 0 0 0 0
11-01-2020 13 (15:10) 3.7 (00:00) 8.4 4.44 (04:50) 3.33 (01:30) 0 0 0 0 0
10-01-2020 12.8 (15:00) 5.1 (00:00) 9 10.56 (02:00) 4.72 (02:00) 2.2 2.2 0 0 0
09-01-2020 17.3 (11:40) 10.3 (00:00) 13.8 22.22 (14:10) 13.89 (14:10) 2.2 0 0 2.2 0
08-01-2020 16.8 (13:50) 11.7 (00:00) 14.2 12.5 (23:59) 7.78 (23:59) 0 0 0 0 0
07-01-2020 15.7 (14:10) 5.4 (00:00) 10.5 8.61 (01:10) 5.56 (01:20) 0 0 0 0 0
06-01-2020 14.1 (16:40) 4 (00:00) 9.1 16.67 (14:10) 12.22 (14:10) 0 0 0 0 0
05-01-2020 11.5 (15:10) 3.9 (00:00) 7.7 5.28 (11:00) 4.17 (10:10) 0 0 0 0 0
04-01-2020 11.4 (15:20) 6.7 (00:00) 9 8.61 (15:10) 5 (15:50) 0.8 0 0.8 0 0
03-01-2020 14.4 (12:50) 8 (00:00) 11.2 17.5 (00:20) 10 (00:10) 0 0 0 0 0
02-01-2020 13 (15:30) 2.7 (00:00) 7.9 16.39 (23:50) 10 (23:40) 0 0 0 0 0
01-01-2020 11.1 (13:20) 4 (00:00) 7.6 5.83 (03:40) 4.17 (03:40) 0 0 0 0 0
31-12-2019 14.9 (14:10) 5.6 (00:00) 10.2 10.28 (10:30) 6.67 (10:30) 0 0 0 0 0
30-12-2019 -- (--) -- (--) -- -- (--) -- (--) -- 0 0 0 --
29-12-2019 14.3 (16:40) 3.8 (00:00) 9.1 3.89 (07:30) 3.06 (07:30) 0 0 0 0 0
28-12-2019 14 (15:00) 2.9 (00:00) 8.5 5 (11:30) 3.61 (11:40) 0 0 0 0 0
27-12-2019 12.8 (14:40) 3.1 (00:00) 8 5.28 (23:00) 4.17 (03:10) 0 0 0 0 0
26-12-2019 16.4 (14:30) 5.5 (00:00) 10.9 11.39 (01:50) 6.39 (01:40) 0 0 0 0 0
25-12-2019 19.7 (20:30) 9.4 (00:00) 14.6 16.39 (21:30) 8.33 (21:00) 0 0 0 0 0
24-12-2019 20.9 (14:00) 11 (00:00) 15.9 14.44 (10:50) 8.61 (11:30) 0 0 0 0 0
23-12-2019 17.2 (13:30) 10.4 (00:00) 13.8 20 (12:10) 11.39 (09:30) 0.2 0.2 0 0 0

Gráficas

Temp. máximas Temp. mínimas Temp. medias Precipitaciones Rachas de viento máximas Velocidades máximas media en intervalos de 10 minutos

Datos horarios

Fecha y hora oficial Temperatura (ºC) Velocidad del viento (km/h) Dirección del viento Racha (km/h) Dirección de racha Precipitación (mm) Presión (hPa) Tendencia (hPa) Humedad (%)
2020-01-21 23:00:00 -- -- -- -- -- -- -- -- --
2020-01-21 22:00:00 8.9 21 Este 34 Este 0 -- -- 80
2020-01-21 21:00:00 8.6 17 Este 34 Este 0 -- -- 81
2020-01-21 20:00:00 8.3 20 Este 38 Este 0 -- -- 80
2020-01-21 19:00:00 7.9 17 Este 36 Este 0 -- -- 86
2020-01-21 18:00:00 7.7 21 Este 54 Este 0.4 -- -- 90
2020-01-21 17:00:00 9.2 31 Este 54 Nordeste 0.2 -- -- 81
2020-01-21 16:00:00 8.3 22 Este 55 Nordeste 0.6 -- -- 86
2020-01-21 15:00:00 9.5 32 Nordeste 60 Nordeste 0 -- -- 74
2020-01-21 14:00:00 9.4 28 Nordeste 53 Este 0 -- -- 72
2020-01-21 13:00:00 9.5 28 Nordeste 47 Este 0 -- -- 75
2020-01-21 12:00:00 10 18 Este 38 Este 0 -- -- 72
2020-01-21 11:00:00 8.8 22 Este 35 Este 0 -- -- 74
2020-01-21 10:00:00 7.9 12 Este 25 Este 0 -- -- 80
2020-01-21 09:00:00 7.5 13 Este 23 Este 0 -- -- 81
2020-01-21 08:00:00 7.4 15 Este 27 Este 0 -- -- 82
2020-01-21 07:00:00 7.3 14 Este 28 Este 0 -- -- 83
2020-01-21 06:00:00 7.2 15 Este 31 Este 0 -- -- 83
2020-01-21 05:00:00 7.4 16 Este 29 Este 0 -- -- 79
2020-01-21 04:00:00 7.6 14 Este 27 Este 0 -- -- 75
2020-01-21 03:00:00 7.4 14 Este 30 Este 0 -- -- 75
2020-01-21 02:00:00 7.4 19 Este 30 Este 0 -- -- 75
2020-01-21 01:00:00 7.5 15 Este 32 Este 0 -- -- 69
2020-01-21 00:00:00 7.7 21 Este 44 Este 0 -- -- 66
2020-01-20 23:00:00 7.8 21 Este 39 Este 0 -- -- 63
2020-01-20 22:00:00 7.6 19 Este 39 Este 0 -- -- 62
2020-01-20 21:00:00 7.7 19 Este 38 Este 0 -- -- 62
2020-01-20 20:00:00 7.7 17 Este 41 Este 0 -- -- 61
2020-01-20 19:00:00 8 26 Este 46 Este 0 -- -- 61
2020-01-20 18:00:00 8.4 30 Este 67 Este 0 -- -- 59
2020-01-20 17:00:00 8.4 27 Este 63 Este 0 -- -- 65
2020-01-20 16:00:00 8.9 37 Este 66 Este 0 -- -- 63
2020-01-20 15:00:00 9.9 35 Este 64 Este 0 -- -- 58
2020-01-20 14:00:00 9.2 32 Este 62 Nordeste 0 -- -- 65
2020-01-20 13:00:00 9.4 30 Este 64 Este 0 -- -- 63
2020-01-20 12:00:00 9.5 33 Este 67 Este 0 -- -- 63
2020-01-20 11:00:00 9.6 33 Este 62 Este 0 -- -- 62
2020-01-20 10:00:00 7.8 30 Este 66 Nordeste 0 -- -- 68
2020-01-20 09:00:00 8.8 39 Este 63 Este 0 -- -- 63
2020-01-20 08:00:00 8.1 37 Este 61 Este 0 -- -- 68
2020-01-20 07:00:00 8.3 45 Este 71 Nordeste 0.2 -- -- 68
2020-01-20 06:00:00 8.1 27 Este 63 Este 0 -- -- 71
2020-01-20 05:00:00 8.5 32 Este 60 Este 0 -- -- 65
2020-01-20 04:00:00 9 30 Este 64 Este 0 -- -- 68
2020-01-20 03:00:00 8.4 30 Nordeste 62 Este 0 -- -- 66
2020-01-20 02:00:00 8.9 35 Este 61 Nordeste 0 -- -- 68
2020-01-20 01:00:00 9.7 36 Nordeste 60 Este 0 -- -- 68
2020-01-20 00:00:00 9.2 36 Este 65 Este 0 -- -- 69
2020-01-19 23:00:00 9.6 39 Nordeste 70 Este 0 -- -- 65
2020-01-19 22:00:00 9.3 37 Este 64 Este 0 -- -- 59
2020-01-19 21:00:00 9.4 34 Nordeste 56 Este 0 -- -- 62
2020-01-19 20:00:00 9.4 30 Este 56 Este 0 -- -- 61
2020-01-19 19:00:00 9.5 35 Este 54 Este 0 -- -- 61
2020-01-19 18:00:00 9.5 33 Este 57 Este 0 -- -- 57
2020-01-19 17:00:00 10 33 Este 56 Este 0 -- -- 64
2020-01-19 16:00:00 10.6 29 Este 51 Nordeste 0 -- -- 66
2020-01-19 15:00:00 10.7 29 Este 56 Nordeste 0 -- -- 64
2020-01-19 14:00:00 10.9 34 Este 52 Este 0 -- -- 65
2020-01-19 13:00:00 10.7 31 Este 53 Este 0 -- -- 70
2020-01-19 12:00:00 10.4 31 Nordeste 49 Nordeste 0 -- -- 72
2020-01-19 11:00:00 10.4 28 Nordeste 47 Este 0 -- -- 73
2020-01-19 10:00:00 10 21 Nordeste 42 Nordeste 0 -- -- 78
2020-01-19 09:00:00 10.4 27 Este 45 Este 0 -- -- 69
2020-01-19 08:00:00 10.3 26 Nordeste 45 Este 0 -- -- 72
2020-01-19 07:00:00 10.3 26 Nordeste 50 Nordeste 0 -- -- 71
2020-01-19 06:00:00 9.9 22 Nordeste 40 Nordeste 0.8 -- -- 81
2020-01-19 05:00:00 10.5 25 Nordeste 53 Nordeste 0.2 -- -- 77
2020-01-19 04:00:00 9.9 28 Nordeste 54 Nordeste 0 -- -- 86
2020-01-19 03:00:00 10.7 21 Nordeste 55 Nordeste 0 -- -- 85
2020-01-19 02:00:00 10.9 30 Nordeste 56 Nordeste 0 -- -- 88
2020-01-19 01:00:00 11 17 Norte 44 Nordeste 0 -- -- 91
2020-01-19 00:00:00 9.9 14 Oeste 33 Oeste 0.2 -- -- 93
2020-01-18 23:00:00 10 16 Oeste 34 Oeste 0 -- -- 89
2020-01-18 22:00:00 10 15 Oeste 23 Oeste 0 -- -- 86
2020-01-18 21:00:00 10.2 17 Oeste 32 Oeste 0.6 -- -- 84
2020-01-18 20:00:00 10.1 14 Sudoeste 31 Sudoeste 0 -- -- 77
2020-01-18 19:00:00 10.4 16 Sudoeste 32 Sudoeste 0 -- -- 79
2020-01-18 18:00:00 10.1 10 Sudoeste 31 Oeste 0.2 -- -- 82
2020-01-18 17:00:00 8.8 23 Oeste 42 Oeste 2.4 -- -- 89
2020-01-18 16:00:00 13.4 28 Oeste 47 Oeste 0 -- -- 63
2020-01-18 15:00:00 13.4 26 Oeste 45 Oeste 0 -- -- 67
2020-01-18 14:00:00 11.7 28 Oeste 51 Oeste 6.8 -- -- 88
2020-01-18 13:00:00 14.5 22 Sudoeste 42 Sudoeste 0.8 -- -- 77
2020-01-18 12:00:00 15.1 16 Sudoeste 40 Sur 0 -- -- 69
2020-01-18 11:00:00 13.4 6 Sudoeste 17 Oeste 0 -- -- 71
2020-01-18 10:00:00 9.1 4 Sudeste 12 Este 0 -- -- 81
2020-01-18 09:00:00 8.4 9 Sur 16 Sur 0 -- -- 81
2020-01-18 08:00:00 8 6 Sudeste 13 Sur 0.2 -- -- 88
2020-01-18 07:00:00 8 3 Sudoeste 10 Sur 0 -- -- 82
2020-01-18 06:00:00 7.8 5 Sudeste 12 Sur 0 -- -- 85
2020-01-18 05:00:00 8.1 6 Sudeste 12 Sur 0 -- -- 82
2020-01-18 04:00:00 8.5 7 Sur 12 Sur 0 -- -- 77
2020-01-18 03:00:00 7.9 8 Sur 12 Sudeste 0 -- -- 80
2020-01-18 02:00:00 7.7 2 Sudoeste 12 Sudeste 0 -- -- 85
2020-01-18 01:00:00 8 5 Este 12 Sudeste 0 -- -- 83
2020-01-18 00:00:00 7.7 8 Sur 12 Sur 0 -- -- 87
2020-01-17 23:00:00 7.8 6 Sur 10 Sudeste 0 -- -- 86
2020-01-17 22:00:00 7.5 6 Sudeste 9 Sur 0 -- -- 89
2020-01-17 21:00:00 7.2 8 Sudeste 9 Sudeste 0 -- -- 90
2020-01-17 20:00:00 7.4 5 Sudeste 8 Sudeste 0 -- -- 88
2020-01-17 19:00:00 8.7 5 Sur 12 Sudoeste 0 -- -- 80
2020-01-17 18:00:00 10.3 8 Sudoeste 13 Sur 0 -- -- 72
2020-01-17 17:00:00 11.3 8 Sur 15 Sudoeste 0 -- -- 70
2020-01-17 16:00:00 12.5 12 Sudoeste 31 Oeste 0 -- -- 61
2020-01-17 15:00:00 12.6 20 Oeste 34 Sudoeste 0.2 -- -- 64
2020-01-17 14:00:00 12.6 18 Oeste 33 Sudoeste 0 -- -- 61
2020-01-17 13:00:00 11.4 15 Sudoeste 32 Sudoeste 0 -- -- 68
2020-01-17 12:00:00 10.7 19 Sur 33 Sudoeste 0 -- -- 73
2020-01-17 11:00:00 8.6 22 Sur 36 Sur 0 -- -- 79
2020-01-17 10:00:00 7.9 10 Sur 28 Sur 0.2 -- -- 85
2020-01-17 09:00:00 7.7 20 Sur 28 Sur 0 -- -- 82
2020-01-17 08:00:00 8.5 13 Sudoeste 38 Sudoeste 0.4 -- -- 79
2020-01-17 07:00:00 10 17 Sudoeste 37 Sudoeste 0.2 -- -- 75
2020-01-17 06:00:00 9.3 9 Sudoeste 27 Sudoeste 0.4 -- -- 80
2020-01-17 05:00:00 10.3 15 Sudoeste 28 Sudoeste 0 -- -- 75
2020-01-17 04:00:00 10.2 16 Sudoeste 32 Sudoeste 0 -- -- 72
2020-01-17 03:00:00 9.5 16 Sur 39 Sudoeste 0 -- -- 77
2020-01-17 02:00:00 10.7 22 Sudoeste 66 Sudoeste 0.2 -- -- 68
2020-01-17 01:00:00 11 18 Oeste 37 Sudoeste 0.2 -- -- 74
2020-01-17 00:00:00 11.8 17 Sudoeste 34 Sudoeste 0 -- -- 73
2020-01-16 23:00:00 11.7 17 Sudoeste 40 Sudoeste 0 -- -- 74
2020-01-16 22:00:00 11.6 16 Sudoeste 33 Sur 0 -- -- 76
2020-01-16 21:00:00 11.1 17 Sudoeste 49 Sur 0 -- -- 79
2020-01-16 20:00:00 10.4 30 Sur 46 Sur 0.8 -- -- 81
2020-01-16 19:00:00 9.6 23 Sur 50 Sudoeste 7.4 -- -- 85
2020-01-16 18:00:00 11.7 25 Oeste 44 Oeste 4.4 -- -- 87
2020-01-16 17:00:00 14.4 17 Sudoeste 46 Sudoeste 0.2 -- -- 68
2020-01-16 16:00:00 13.5 19 Oeste 58 Oeste 0 -- -- 85
2020-01-16 15:00:00 16.5 19 Sudoeste 60 Sudoeste 0 -- -- 67
2020-01-16 14:00:00 18.7 20 Sudoeste 52 Sudoeste 0 -- -- 54
2020-01-16 13:00:00 19.3 21 Sudoeste 64 Sudoeste 0 -- -- 51
2020-01-16 12:00:00 19.3 26 Sudoeste 58 Sur 0 -- -- 51
2020-01-16 11:00:00 18.5 24 Sudoeste 54 Sur 0 -- -- 53
2020-01-16 10:00:00 18.3 20 Sur 83 Sur 0 -- -- 53
2020-01-16 09:00:00 17.5 32 Sur 61 Sur 0 -- -- 58
2020-01-16 08:00:00 17 23 Sudoeste 54 Sur 0 -- -- 62
2020-01-16 07:00:00 16.6 22 Sur 43 Sur 0 -- -- 66
2020-01-16 06:00:00 16.7 17 Sur 47 Sur 0 -- -- 65
2020-01-16 05:00:00 17.4 12 Sur 35 Sudeste 0 -- -- 55
2020-01-16 04:00:00 17.2 15 Sur 33 Sur 0 -- -- 54
2020-01-16 03:00:00 17 17 Sur 49 Sur 0 -- -- 55
2020-01-16 02:00:00 15.9 22 Sudoeste 48 Sur 0 -- -- 64
2020-01-16 01:00:00 8 8 Sudeste 14 Sudeste 0 -- -- 96
2020-01-16 00:00:00 7.6 4 Sur 9 Sudeste 0 -- -- 94
2020-01-15 23:00:00 7.9 4 Sudeste 10 Sur 0 -- -- 94
2020-01-15 22:00:00 7.6 3 Sudoeste 10 Sudoeste 0 -- -- 93
2020-01-15 21:00:00 7.6 0 Calma 9 Sudeste 0 -- -- 92
2020-01-15 20:00:00 8.6 6 Sudeste 14 Este 0 -- -- 87
2020-01-15 19:00:00 10.4 7 Este 18 Este 0 -- -- 84
2020-01-15 18:00:00 11.3 8 Este 13 Este 0 -- -- 81
2020-01-15 17:00:00 13.2 5 Nordeste 13 Norte 0 -- -- 73
2020-01-15 16:00:00 13.6 6 Noroeste 15 Norte 0 -- -- 73
2020-01-15 15:00:00 13.3 4 Norte 14 Norte 0 -- -- 74
2020-01-15 14:00:00 13.8 2 Oeste 13 Sudoeste 0 -- -- 70
2020-01-15 13:00:00 13.4 8 Sur 17 Sudoeste 0 -- -- 73
2020-01-15 12:00:00 13.6 8 Oeste 16 Sur 0 -- -- 73
2020-01-15 11:00:00 11.7 9 Sur 14 Sur 0 -- -- 83
2020-01-15 10:00:00 11 2 Sudoeste 10 Sudoeste 0 -- -- 89
2020-01-15 09:00:00 10.9 7 Sudoeste 14 Sudoeste 0 -- -- 92
2020-01-15 08:00:00 11.3 7 Sur 30 Oeste 1.6 -- -- 89
2020-01-15 07:00:00 11.9 18 Oeste 50 Sudoeste 6.8 -- -- 91
2020-01-15 06:00:00 12.9 15 Sudoeste 40 Sudoeste 2 -- -- 82
2020-01-15 05:00:00 14.2 19 Sudoeste 73 Sur 0.2 -- -- 74
2020-01-15 04:00:00 16.2 35 Sudoeste 75 Sur 0 -- -- 56
2020-01-15 03:00:00 16 33 Sur 105 Sur 0 -- -- 58
2020-01-15 02:00:00 16 34 Sudoeste 74 Sur 0 -- -- 59
2020-01-15 01:00:00 16.1 36 Sudoeste 68 Sur 0 -- -- 56
2020-01-15 00:00:00 15.9 28 Sur 58 Sur 0 -- -- 55
2020-01-14 23:00:00 15.8 31 Sur 64 Sur 0 -- -- 54
2020-01-14 22:00:00 15.3 33 Sur 59 Sur 0 -- -- 55
2020-01-14 21:00:00 15 27 Sur 51 Sur 0 -- -- 57
2020-01-14 20:00:00 15.2 21 Sudoeste 48 Sur 0 -- -- 56
2020-01-14 19:00:00 15.1 26 Sudoeste 65 Sudoeste 0 -- -- 56
2020-01-14 18:00:00 15.1 27 Sudoeste 65 Sur 0 -- -- 58
2020-01-14 17:00:00 16.2 31 Sudoeste 67 Sudoeste 0 -- -- 56
2020-01-14 16:00:00 17.8 33 Sudoeste 72 Sudoeste 0 -- -- 49
2020-01-14 15:00:00 18 35 Sudoeste 69 Sudoeste 0 -- -- 47
2020-01-14 14:00:00 17.7 32 Sudoeste 78 Sudoeste 0 -- -- 48
2020-01-14 13:00:00 16.2 37 Sudoeste 88 Sur 0 -- -- 52
2020-01-14 12:00:00 15.4 35 Sudoeste 89 Sudoeste 0 -- -- 54
2020-01-14 11:00:00 15.1 42 Sudoeste 86 Sudoeste 0 -- -- 54
2020-01-14 10:00:00 14.6 39 Sur 88 Sudoeste 0 -- -- 57
2020-01-14 09:00:00 14.5 39 Sudoeste 92 Sudoeste 0 -- -- 58
2020-01-14 08:00:00 14.7 41 Sur 81 Sudoeste 0 -- -- 57
2020-01-14 07:00:00 14.5 33 Sur 78 Sudoeste 0 -- -- 59
2020-01-14 06:00:00 14.6 38 Sudoeste 74 Sur 0 -- -- 59
2020-01-14 05:00:00 14.5 43 Sur 81 Sur 0 -- -- 58
2020-01-14 04:00:00 14.4 43 Sudoeste 94 Sudoeste 0 -- -- 59
2020-01-14 03:00:00 14.6 44 Sudoeste 86 Sur 0 -- -- 58
2020-01-14 02:00:00 14.5 41 Sudoeste 82 Sur 0 -- -- 60
2020-01-14 01:00:00 14.6 46 Sudoeste 82 Sudoeste 0 -- -- 58
2020-01-14 00:00:00 14.3 44 Sur 81 Sur 0 -- -- 60
2020-01-13 23:00:00 14.3 42 Sudoeste 86 Sudoeste 0 -- -- 59
2020-01-13 22:00:00 13.8 46 Sudoeste 80 Sur 0 -- -- 60
2020-01-13 21:00:00 13.3 45 Sudoeste 77 Sur 0 -- -- 60
2020-01-13 20:00:00 13.4 39 Sudoeste 68 Sur 0 -- -- 57
2020-01-13 19:00:00 13.9 34 Sudoeste 63 Sur 0 -- -- 53
2020-01-13 18:00:00 13.8 28 Sur 65 Sur 0 -- -- 51
2020-01-13 17:00:00 14.7 31 Sur 70 Sudoeste 0 -- -- 45
2020-01-13 16:00:00 14.3 39 Sudoeste 74 Sudoeste 0 -- -- 39
2020-01-13 15:00:00 14.1 41 Sur 69 Sur 0 -- -- 38
2020-01-13 14:00:00 14.3 32 Sudoeste 64 Sudoeste 0 -- -- 38
2020-01-13 13:00:00 14.3 31 Sudoeste 55 Sur 0 -- -- 47
2020-01-13 12:00:00 14.1 26 Sudoeste 59 Sudoeste 0 -- -- 51
2020-01-13 11:00:00 14.1 21 Sur 47 Sur 0 -- -- 56
2020-01-13 10:00:00 11.8 17 Sur 31 Sur 0 -- -- 60
2020-01-13 09:00:00 11.3 16 Sur 32 Sur 0 -- -- 62
2020-01-13 08:00:00 11.6 20 Sur 32 Sur 0 -- -- 64
2020-01-13 07:00:00 12.7 23 Sur 40 Sur 0 -- -- 62
2020-01-13 06:00:00 12.7 28 Sur 41 Sur 0 -- -- 61
2020-01-13 05:00:00 12.8 17 Sur 33 Sur 0 -- -- 64
2020-01-13 04:00:00 11.2 2 Noroeste 10 Noroeste 0 -- -- 78
2020-01-13 03:00:00 11.9 6 Sudoeste 23 Sudoeste 0 -- -- 72
2020-01-13 02:00:00 11.9 12 Sur 21 Sur 0 -- -- 72
2020-01-13 01:00:00 10.4 3 Sur 9 Sudeste 0 -- -- 81
2020-01-13 00:00:00 10 4 Sudeste 10 Sudeste 0 -- -- 84
2020-01-12 23:00:00 10 3 Sur 8 Oeste 0 -- -- 83
2020-01-12 22:00:00 9.8 4 Sur 7 Sur 0 -- -- 78
2020-01-12 21:00:00 9.2 0 Calma 8 Sudeste 0 -- -- 79
2020-01-12 20:00:00 9.9 6 Sudeste 10 Sudeste 0 -- -- 74
2020-01-12 19:00:00 10.3 5 Sudeste 8 Sudeste 0 -- -- 82
2020-01-12 18:00:00 12.2 2 Este 5 Nordeste 0 -- -- 75
2020-01-12 17:00:00 13 3 Este 9 Este 0 -- -- 69
2020-01-12 16:00:00 13.7 4 Sudeste 8 Nordeste 0 -- -- 67
2020-01-12 15:00:00 13.7 4 Nordeste 6 Norte 0 -- -- 59
2020-01-12 14:00:00 14.3 4 Norte 8 Norte 0 -- -- 56
2020-01-12 13:00:00 14.4 5 Noroeste 19 Oeste 0 -- -- 58
2020-01-12 12:00:00 14.2 6 Este 11 Norte 0 -- -- 52
2020-01-12 11:00:00 12.9 5 Noroeste 31 Sur 0 -- -- 53
2020-01-12 10:00:00 11.5 6 Sudoeste 23 Sur 0 -- -- 54
2020-01-12 09:00:00 11.2 8 Sur 38 Sur 0 -- -- 51
2020-01-12 08:00:00 11.4 26 Sur 42 Sur 0 -- -- 49
2020-01-12 07:00:00 11.5 25 Sur 44 Sur 0 -- -- 49
2020-01-12 06:00:00 10.8 16 Sur 36 Sur 0 -- -- 57
2020-01-12 05:00:00 10.8 27 Sur 43 Sur 0 -- -- 59
2020-01-12 04:00:00 10.9 25 Sur 45 Sudoeste 0 -- -- 58
2020-01-12 03:00:00 10.2 21 Sur 39 Sur 0 -- -- 64
2020-01-12 02:00:00 5.3 6 Este 11 Sudeste 0 -- -- 84
2020-01-12 01:00:00 6.4 5 Nordeste 12 Sur 0 -- -- 80
2020-01-12 00:00:00 5.7 4 Sudeste 10 Este 0 -- -- 85
2020-01-11 23:00:00 6.5 8 Sudoeste 12 Sudoeste 0 -- -- 84
2020-01-11 22:00:00 6.3 3 Oeste 14 Sur 0 -- -- 89
2020-01-11 21:00:00 5.9 8 Sudeste 10 Sudeste 0 -- -- 92
2020-01-11 20:00:00 6.8 8 Sur 12 Sudeste 0 -- -- 88
2020-01-11 19:00:00 8 9 Sur 12 Sur 0 -- -- 87
2020-01-11 18:00:00 9.6 2 Sur 8 Noroeste 0 -- -- 82
2020-01-11 17:00:00 11.6 2 Norte 7 Nordeste 0 -- -- 75
2020-01-11 16:00:00 12.8 4 Norte 8 Norte 0 -- -- 67
2020-01-11 15:00:00 12.9 4 Norte 9 Norte 0 -- -- 62
2020-01-11 14:00:00 12.4 5 Norte 13 Norte 0 -- -- 66
2020-01-11 13:00:00 12 4 Norte 7 Nordeste 0 -- -- 64
2020-01-11 12:00:00 8.5 0 Calma 6 Sudeste 0 -- -- 85
2020-01-11 11:00:00 7 4 Sudoeste 8 Sudoeste 0 -- -- 85
2020-01-11 10:00:00 6.6 3 Este 9 Sur 0 -- -- 88
2020-01-11 09:00:00 4.2 6 Sur 10 Sur 0 -- -- 90
2020-01-11 08:00:00 4.1 4 Sudeste 12 Sudeste 0 -- -- 88
2020-01-11 07:00:00 4.7 4 Sudeste 12 Sudeste 0 -- -- 88
2020-01-11 06:00:00 5.4 6 Sudeste 15 Sur 0 -- -- 88
2020-01-11 05:00:00 5.2 6 Sur 16 Sur 0 -- -- 92
2020-01-11 04:00:00 4.7 10 Sur 13 Sur 0 -- -- 93
2020-01-11 03:00:00 5 9 Sur 14 Sur 0 -- -- 94
2020-01-11 02:00:00 4.7 10 Sur 14 Sudeste 0 -- -- 95
2020-01-11 01:00:00 4.7 11 Sur 13 Sur 0 -- -- 94
2020-01-11 00:00:00 5.3 7 Sur 14 Sudeste 0 -- -- 94
2020-01-10 23:00:00 5.2 8 Sur 12 Sur 0 -- -- 94
2020-01-10 22:00:00 5.3 4 Sur 9 Sudeste 0 -- -- 94
2020-01-10 21:00:00 5.6 7 Sur 9 Sudeste 0 -- -- 93
2020-01-10 20:00:00 6 7 Sur 9 Sur 0 -- -- 92
2020-01-10 19:00:00 7.1 7 Sur 10 Sur 0 -- -- 89
2020-01-10 18:00:00 9.2 6 Sur 10 Este 0 -- -- 84
2020-01-10 17:00:00 11.2 4 Sudeste 8 Nordeste 0 -- -- 80
2020-01-10 16:00:00 12.1 5 Norte 13 Noroeste 0 -- -- 74
2020-01-10 15:00:00 12.8 5 Norte 13 Noroeste 0 -- -- 72
2020-01-10 14:00:00 11.8 6 Norte 12 Norte 0 -- -- 73
2020-01-10 13:00:00 12.1 7 Oeste 14 Oeste 0 -- -- 76
2020-01-10 12:00:00 11.6 4 Este 12 Sur 0 -- -- 78
2020-01-10 11:00:00 9.6 8 Sudeste 13 Sur 0 -- -- 87
2020-01-10 10:00:00 8.3 11 Sur 16 Sudeste 0 -- -- 91
2020-01-10 09:00:00 7.8 4 Sudoeste 15 Sur 0 -- -- 92
2020-01-10 08:00:00 7.6 14 Sur 17 Sur 0 -- -- 91
2020-01-10 07:00:00 8.1 6 Oeste 11 Oeste 0 -- -- 91
2020-01-10 06:00:00 8.2 7 Sur 17 Oeste 1.2 -- -- 88
2020-01-10 05:00:00 9.1 4 Oeste 14 Oeste 0.2 -- -- 84
2020-01-10 04:00:00 8.6 8 Sudoeste 27 Oeste 0.6 -- -- 83
2020-01-10 03:00:00 10 13 Sudoeste 25 Sudoeste 0 -- -- 73
2020-01-10 02:00:00 10 17 Sudoeste 38 Sudoeste 0.2 -- -- 72
2020-01-10 01:00:00 10.2 13 Sudoeste 27 Oeste 0 -- -- 68
2020-01-10 00:00:00 10.3 13 Sudoeste 35 Oeste 0 -- -- 73
2020-01-09 23:00:00 10.7 14 Sudoeste 28 Sudoeste 0 -- -- 71
2020-01-09 22:00:00 10.3 13 Sudoeste 49 Sudoeste 0 -- -- 71
2020-01-09 21:00:00 10.9 15 Sudoeste 32 Oeste 0 -- -- 68
2020-01-09 20:00:00 10.4 10 Sudoeste 28 Sur 0 -- -- 69
2020-01-09 19:00:00 11 16 Sudoeste 37 Sudoeste 0 -- -- 64
2020-01-09 18:00:00 11.3 16 Sudoeste 32 Oeste 0 -- -- 63
2020-01-09 17:00:00 12.1 22 Oeste 50 Sudoeste 0 -- -- 63
2020-01-09 16:00:00 13 29 Oeste 63 Oeste 0 -- -- 64
2020-01-09 15:00:00 12.8 41 Oeste 80 Oeste 0.2 -- -- 71
2020-01-09 14:00:00 12.5 41 Oeste 64 Oeste 2 -- -- 77
2020-01-09 13:00:00 16.7 22 Oeste 49 Sudoeste 0 -- -- 72
2020-01-09 12:00:00 17.2 31 Sudoeste 57 Sur 0 -- -- 69
2020-01-09 11:00:00 16.6 17 Sudoeste 46 Sur 0 -- -- 71
2020-01-09 10:00:00 16.3 25 Sudoeste 50 Sur 0 -- -- 70
2020-01-09 09:00:00 16.3 23 Sudoeste 55 Sudoeste 0 -- -- 70
2020-01-09 08:00:00 16.1 32 Sudoeste 59 Sur 0 -- -- 71
2020-01-09 07:00:00 15.9 28 Sur 49 Sudoeste 0 -- -- 73
2020-01-09 06:00:00 15.2 10 Sur 38 Sudoeste 0 -- -- 76
2020-01-09 05:00:00 15.7 27 Sur 47 Sudoeste 0 -- -- 74
2020-01-09 04:00:00 15.8 27 Sur 48 Sur 0 -- -- 73
2020-01-09 03:00:00 16.1 31 Sur 50 Sur 0 -- -- 72
2020-01-09 02:00:00 15.9 31 Sur 47 Sur 0 -- -- 74
2020-01-09 01:00:00 16 28 Sur 48 Sur 0 -- -- 75
2020-01-09 00:00:00 15.9 28 Sur 45 Sur 0 -- -- 76
2020-01-08 23:00:00 14.8 2 Sudoeste 18 Sudoeste 0 -- -- 80
2020-01-08 22:00:00 14.7 4 Norte 22 Sur 0 -- -- 82
2020-01-08 21:00:00 14.2 4 Sudoeste 11 Sudoeste 0 -- -- 84
2020-01-08 20:00:00 13 4 Oeste 12 Sudeste 0 -- -- 84
2020-01-08 19:00:00 15.7 9 Oeste 24 Oeste 0 -- -- 76
2020-01-08 18:00:00 15.4 11 Sur 20 Sur 0 -- -- 78
2020-01-08 17:00:00 15.8 0 Calma 7 Nordeste 0 -- -- 72
2020-01-08 16:00:00 14.8 4 Noroeste 9 Noroeste 0 -- -- 75
2020-01-08 15:00:00 16 8 Nordeste 13 Nordeste 0 -- -- 73
2020-01-08 14:00:00 16.6 6 Nordeste 10 Norte 0 -- -- 77
2020-01-08 13:00:00 15.6 5 Norte 12 Oeste 0 -- -- 77
2020-01-08 12:00:00 15.4 4 Norte 20 Sudoeste 0 -- -- 78
2020-01-08 11:00:00 14.6 4 Este 12 Nordeste 0 -- -- 79
2020-01-08 10:00:00 14.3 5 Noroeste 18 Sur 0 -- -- 78
2020-01-08 09:00:00 14.3 7 Oeste 26 Sur 0 -- -- 75
2020-01-08 08:00:00 14 8 Sudoeste 24 Sudoeste 0 -- -- 73
2020-01-08 07:00:00 13.7 3 Este 20 Sur 0 -- -- 74
2020-01-08 06:00:00 14.8 12 Sur 22 Sudoeste 0 -- -- 67
2020-01-08 05:00:00 14.3 8 Sudoeste 21 Sur 0 -- -- 66
2020-01-08 04:00:00 14.7 6 Nordeste 24 Sudoeste 0 -- -- 59
2020-01-08 03:00:00 13.9 7 Oeste 16 Oeste 0 -- -- 63
2020-01-08 02:00:00 13.5 0 Calma 17 Oeste 0 -- -- 61
2020-01-08 01:00:00 12.3 3 Oeste 8 Norte 0 -- -- 66
2020-01-08 00:00:00 12.1 0 Calma 23 Sudoeste 0 -- -- 69
2020-01-07 23:00:00 13.9 10 Sudoeste 22 Sudoeste 0 -- -- 56
2020-01-07 22:00:00 9.7 3 Sudeste 10 Sur 0 -- -- 76
2020-01-07 21:00:00 9.5 4 Sur 8 Sudoeste 0 -- -- 76
2020-01-07 20:00:00 9 6 Oeste 8 Oeste 0 -- -- 81
2020-01-07 19:00:00 9.1 0 Calma 12 Sur 0 -- -- 77
2020-01-07 18:00:00 10.7 6 Sur 10 Sur 0 -- -- 74
2020-01-07 17:00:00 13.4 0 Calma 7 Noroeste 0 -- -- 72
2020-01-07 16:00:00 13.7 5 Oeste 7 Oeste 0 -- -- 68
2020-01-07 15:00:00 14.3 3 Norte 8 Sudeste 0 -- -- 64
2020-01-07 14:00:00 15.4 8 Sur 13 Sur 0 -- -- 50
2020-01-07 13:00:00 13.4 0 Calma 5 Norte 0 -- -- 56
2020-01-07 12:00:00 12.6 2 Sudoeste 6 Sur 0 -- -- 58
2020-01-07 11:00:00 10.8 4 Sudeste 16 Sur 0 -- -- 65
2020-01-07 10:00:00 8.1 11 Sur 16 Sur 0 -- -- 66
2020-01-07 09:00:00 6.8 9 Sur 17 Sur 0 -- -- 67
2020-01-07 08:00:00 6.8 3 Sudoeste 18 Oeste 0 -- -- 70
2020-01-07 07:00:00 7.1 13 Sur 19 Sur 0 -- -- 73
2020-01-07 06:00:00 6.3 3 Sur 12 Sur 0 -- -- 78
2020-01-07 05:00:00 5.9 3 Sudoeste 14 Oeste 0 -- -- 82
2020-01-07 04:00:00 6.1 4 Oeste 18 Sur 0 -- -- 82
2020-01-07 03:00:00 7.4 6 Sur 17 Sur 0 -- -- 77
2020-01-07 02:00:00 8.5 6 Sur 31 Sur 0 -- -- 75
2020-01-07 01:00:00 8.7 19 Sur 27 Sur 0 -- -- 77
2020-01-07 00:00:00 7.9 13 Sur 19 Sur 0 -- -- 81
2020-01-06 23:00:00 8.7 4 Este 15 Sudeste 0 -- -- 78
2020-01-06 22:00:00 7 12 Sudeste 15 Sudeste 0 -- -- 85
2020-01-06 21:00:00 8.4 5 Sur 11 Oeste 0 -- -- 76
2020-01-06 20:00:00 10.5 7 Oeste 35 Sur 0 -- -- 71
2020-01-06 19:00:00 11.2 25 Sur 42 Sur 0 -- -- 69
2020-01-06 18:00:00 10.8 17 Sur 26 Sur 0 -- -- 70
2020-01-06 17:00:00 13.7 6 Sudoeste 20 Sudoeste 0 -- -- 57
2020-01-06 16:00:00 13.6 12 Sur 31 Sur 0 -- -- 58
2020-01-06 15:00:00 12.4 18 Sur 60 Sur 0 -- -- 67
2020-01-06 14:00:00 10 41 Sur 56 Sur 0 -- -- 74
2020-01-06 13:00:00 10.4 15 Sur 22 Sur 0 -- -- 70
2020-01-06 12:00:00 9.8 5 Sur 8 Sur 0 -- -- 80
2020-01-06 11:00:00 9.1 3 Este 11 Sudeste 0 -- -- 80
2020-01-06 10:00:00 6.5 5 Noroeste 12 Noroeste 0 -- -- 82